createdAt,value
2023-04-23T14:11:44.389Z,22.50
2023-04-23T19:43:04.282Z,14.90
2023-04-23T19:45:32.429Z,14.80
2023-04-23T19:48:04.839Z,14.80
2023-04-23T19:50:32.224Z,14.80
2023-04-23T19:53:01.894Z,14.80
2023-04-23T19:55:28.913Z,14.80
2023-04-23T19:58:02.075Z,14.80
2023-04-23T20:00:37.501Z,14.30
2023-04-23T20:03:10.093Z,14.50
2023-04-23T20:05:55.480Z,14.50
2023-04-23T20:08:33.757Z,14.40
2023-04-23T20:11:10.748Z,14.60
2023-04-23T20:13:38.919Z,14.50
2023-04-23T20:16:05.958Z,14.60
2023-04-23T20:18:35.614Z,14.50
2023-04-23T20:21:36.964Z,14.40
2023-04-23T20:24:12.736Z,14.30
2023-04-23T20:26:45.310Z,14.40
2023-04-23T20:29:20.309Z,14.20
2023-04-23T20:31:55.154Z,14.40
2023-04-23T20:34:31.366Z,14.40
2023-04-23T20:37:02.247Z,14.30
2023-04-23T20:39:36.856Z,14.40
2023-04-23T20:42:07.206Z,14.30
2023-04-23T20:44:36.557Z,14.20
2023-04-23T20:47:04.975Z,14.30
2023-04-23T20:49:33.761Z,14.30
2023-04-23T21:13:52.763Z,13.90
2023-04-23T21:16:21.197Z,13.70
2023-04-23T21:18:55.833Z,13.80
2023-04-23T21:21:29.142Z,13.70
2023-04-23T21:23:56.769Z,13.80
2023-04-23T21:26:24.437Z,13.60
2023-04-23T21:28:51.280Z,13.60
2023-04-23T21:31:38.789Z,13.90
2023-04-23T21:34:06.020Z,13.70
2023-04-23T21:36:36.246Z,13.60
2023-04-23T21:39:03.865Z,13.70
2023-04-23T21:41:33.329Z,13.70
2023-04-23T21:44:00.406Z,13.50
2023-04-23T21:46:28.617Z,13.60
2023-04-23T21:48:56.463Z,13.50
2023-04-23T21:54:58.333Z,13.50
2023-04-23T21:57:29.739Z,13.60
2023-04-23T22:00:01.011Z,13.40
2023-04-23T22:02:28.082Z,13.60
2023-04-23T22:05:01.304Z,13.50
2023-04-23T22:07:29.484Z,13.50
2023-04-23T22:10:00.379Z,13.70
2023-04-23T22:12:30.173Z,13.60
2023-04-23T22:15:12.152Z,13.60
2023-04-23T22:17:42.672Z,13.50
2023-04-23T22:20:15.092Z,13.50
2023-04-23T22:22:42.532Z,13.50
2023-04-23T22:25:11.055Z,13.40
2023-04-23T22:27:41.018Z,13.50
2023-04-23T22:30:10.053Z,13.40
2023-04-23T22:32:38.474Z,13.50
2023-04-23T22:35:07.901Z,13.20
2023-04-23T22:37:35.675Z,13.50
2023-04-23T22:40:04.354Z,13.60
2023-04-23T22:42:33.345Z,13.40
2023-04-23T22:45:00.378Z,13.30
2023-04-23T22:47:27.532Z,13.40
2023-04-23T22:49:54.546Z,13.40
2023-04-23T22:52:22.707Z,13.30
2023-04-23T22:54:53.798Z,13.40
2023-04-23T22:57:25.356Z,13.40
2023-04-23T22:59:52.337Z,13.40
2023-04-23T23:02:21.207Z,13.40
2023-04-23T23:04:49.520Z,13.40
2023-04-23T23:07:16.585Z,13.30
2023-04-23T23:09:43.890Z,13.20
2023-04-23T23:12:13.432Z,13.10
2023-04-23T23:14:40.469Z,13.20
2023-04-23T23:17:07.364Z,13.30
2023-04-23T23:19:34.429Z,13.20
2023-04-23T23:22:04.182Z,13.10
2023-04-23T23:24:32.400Z,13.00
2023-04-23T23:27:02.270Z,13.10
2023-04-23T23:29:29.186Z,13.00
2023-04-23T23:32:05.729Z,13.00
2023-04-23T23:34:33.052Z,13.10
2023-04-23T23:37:11.146Z,13.20
2023-04-23T23:39:40.566Z,12.90
2023-04-23T23:42:07.615Z,13.10
2023-04-23T23:44:35.696Z,13.10
2023-04-23T23:47:05.352Z,13.20
2023-04-23T23:49:33.682Z,13.30
2023-04-23T23:52:00.976Z,13.30
2023-04-23T23:54:27.970Z,13.20
2023-04-23T23:56:59.599Z,13.40
2023-04-23T23:59:29.702Z,13.20
